Terminal Aerodrome Forecast
Issued by NWS

Home | Current Version | Previous Version | Text Only | Print | Product List | Glossary On
Versions: 1 2 3 4 5 6 7 8 9 10 11 12 13 14 15 16 17 18 19 20 21 22 23 24
000
FTUS44 KOHX 300500
TAFCKV
TAF
KCKV 300520Z 3006/3106 00000KT P6SM BKN250
     FM300900 17003KT P6SM BKN050 BKN100
     FM301100 17004KT 5SM RA BR VCTS BKN050CB
     FM301500 21007KT 4SM TSRA BR OVC040CB
     FM302000 20008KT 2SM TSRA BR OVC015CB
     FM310000 18006KT 3SM TSRA OVC025CB=

USA.gov is the U.S. government's official web portal to all federal, state and local government web resources and services.